createdAt,value
2022-10-01T00:01:24.139Z,100074.09
2022-10-01T00:03:52.217Z,100068.06
2022-10-01T00:06:21.109Z,100039.06
2022-10-01T00:08:49.830Z,100069.50
2022-10-01T00:11:18.376Z,100066.78
2022-10-01T00:13:46.484Z,100055.31
2022-10-01T00:16:15.789Z,100064.09
2022-10-01T00:18:45.803Z,100070.38
2022-10-01T00:21:16.325Z,100071.41
2022-10-01T00:23:44.290Z,100069.50
2022-10-01T00:26:13.464Z,100057.44
2022-10-01T00:28:41.497Z,100050.75
2022-10-01T00:31:09.637Z,100057.00
2022-10-01T00:33:38.530Z,100046.56
2022-10-01T00:36:08.697Z,100061.19
2022-10-01T00:38:36.723Z,100057.03
2022-10-01T00:41:04.863Z,100040.72
2022-10-01T00:43:34.351Z,100059.31
2022-10-01T00:46:03.847Z,100060.75
2022-10-01T00:48:32.128Z,100052.63
2022-10-01T00:51:00.081Z,100056.59
2022-10-01T00:53:29.429Z,100059.94
2022-10-01T00:55:58.264Z,100059.50
2022-10-01T00:58:26.378Z,100059.94
2022-10-01T01:00:56.923Z,100063.69
2022-10-01T01:03:24.940Z,100057.41
2022-10-01T01:05:52.929Z,100056.16
2022-10-01T01:08:20.892Z,100054.69
2022-10-01T01:10:54.553Z,100060.09
2022-10-01T01:13:25.587Z,100059.44
2022-10-01T01:15:56.579Z,100050.66
2022-10-01T01:18:27.712Z,100038.16
2022-10-01T01:21:24.633Z,100028.16
2022-10-01T01:24:22.579Z,100030.22
2022-10-01T01:26:56.226Z,100035.88
2022-10-01T01:29:27.538Z,100041.06
2022-10-01T01:31:56.429Z,100039.38
2022-10-01T01:34:28.324Z,100041.88
2022-10-01T01:36:58.685Z,100037.25
2022-10-01T01:39:27.148Z,100035.38
2022-10-01T01:41:57.157Z,100043.50
2022-10-01T01:44:28.727Z,100047.91
2022-10-01T01:46:57.592Z,100044.78
2022-10-01T01:49:25.582Z,100037.25
2022-10-01T01:51:55.383Z,100046.03
2022-10-01T01:54:23.367Z,100047.25
2022-10-01T01:56:51.311Z,100052.88
2022-10-01T01:59:19.661Z,100062.47
2022-10-01T02:01:49.571Z,100056.63
2022-10-01T02:04:20.663Z,100061.63
2022-10-01T02:06:55.794Z,100072.47
2022-10-01T02:09:28.175Z,100066.41
2022-10-01T02:12:14.865Z,100062.66
2022-10-01T02:14:47.528Z,100067.44
2022-10-01T02:17:17.816Z,100076.41
2022-10-01T02:19:48.203Z,100071.44
2022-10-01T02:22:18.652Z,100054.28
2022-10-01T02:24:48.184Z,100064.97
2022-10-01T02:27:19.051Z,100066.84
2022-10-01T02:29:47.102Z,100062.66
2022-10-01T02:32:16.459Z,100063.09
2022-10-01T02:34:44.471Z,100058.09
2022-10-01T02:37:12.577Z,100059.56
2022-10-01T02:39:41.014Z,100057.06
2022-10-01T02:42:09.434Z,100062.28
2022-10-01T02:44:40.132Z,100053.13
2022-10-01T02:47:09.138Z,100048.72
2022-10-01T02:49:39.567Z,100065.63
2022-10-01T02:52:10.138Z,100056.91
2022-10-01T02:54:40.273Z,100049.59
2022-10-01T02:57:27.583Z,100058.78
2022-10-01T02:59:57.799Z,100060.41
2022-10-01T03:02:27.565Z,100061.44
2022-10-01T03:04:57.324Z,100060.78
2022-10-01T03:07:25.401Z,100064.28
2022-10-01T03:09:53.425Z,100070.13
2022-10-01T03:12:22.577Z,100066.50
2022-10-01T03:14:50.782Z,100073.38
2022-10-01T03:17:18.761Z,100077.53
2022-10-01T03:19:46.750Z,100077.94
2022-10-01T03:22:18.303Z,100081.69
2022-10-01T03:24:46.285Z,100073.31
2022-10-01T03:27:14.234Z,100080.41
2022-10-01T03:29:42.194Z,100070.84
2022-10-01T03:32:10.413Z,100059.59
2022-10-01T03:34:38.379Z,100055.84
2022-10-01T03:37:06.344Z,100053.78
2022-10-01T03:39:35.714Z,100036.25
2022-10-01T03:42:05.968Z,100056.72
2022-10-01T03:44:34.046Z,100050.91
2022-10-01T03:47:02.065Z,100053.63
2022-10-01T03:49:30.092Z,100057.34
2022-10-01T03:51:58.031Z,100058.38
2022-10-01T03:54:26.373Z,100059.66
2022-10-01T03:56:55.698Z,100062.00
2022-10-01T03:59:23.673Z,100059.28
2022-10-01T04:01:51.854Z,100072.59
2022-10-01T04:04:19.908Z,100086.78
2022-10-01T04:06:47.967Z,100084.50
2022-10-01T04:09:15.903Z,100097.22
2022-10-01T04:11:43.850Z,100106.97
2022-10-01T04:14:13.188Z,100111.75
2022-10-01T04:16:41.232Z,100115.50
2022-10-01T04:19:09.164Z,100117.97
2022-10-01T04:21:38.222Z,100109.22
2022-10-01T04:24:06.341Z,100102.91
2022-10-01T04:26:34.297Z,100104.19
2022-10-01T04:29:02.253Z,100115.59
2022-10-01T04:31:35.309Z,100111.19
2022-10-01T04:34:03.847Z,100104.94
2022-10-01T04:36:31.858Z,100102.69
2022-10-01T04:39:02.543Z,100097.91
2022-10-01T04:41:31.890Z,100105.88
2022-10-01T04:44:00.633Z,100105.50
2022-10-01T04:46:29.497Z,100099.81
2022-10-01T04:48:58.887Z,100088.75
2022-10-01T04:51:26.859Z,100091.50
2022-10-01T04:53:55.676Z,100083.84
2022-10-01T04:56:23.730Z,100078.41
2022-10-01T04:58:51.925Z,100089.78
2022-10-01T05:01:19.954Z,100081.91
2022-10-01T05:03:48.459Z,100085.84
2022-10-01T05:06:17.834Z,100078.56
2022-10-01T05:08:45.795Z,100074.50
2022-10-01T05:11:13.723Z,100066.31
2022-10-01T05:13:41.774Z,100071.44
2022-10-01T05:16:09.776Z,100073.78
2022-10-01T05:18:39.317Z,100070.38
2022-10-01T05:21:07.717Z,100081.97
2022-10-01T05:23:37.103Z,100087.44
2022-10-01T05:26:05.886Z,100077.91
2022-10-01T05:28:34.367Z,100092.41
2022-10-01T05:31:02.519Z,100084.63
2022-10-01T05:33:30.756Z,100088.69
2022-10-01T05:35:58.952Z,100076.09
2022-10-01T05:38:26.996Z,100086.09
2022-10-01T05:40:56.348Z,100093.72
2022-10-01T05:43:25.626Z,100099.16
2022-10-01T05:45:53.617Z,100097.56
2022-10-01T05:48:21.864Z,100079.28
2022-10-01T05:50:50.027Z,100090.91
2022-10-01T05:53:18.007Z,100095.53
2022-10-01T05:55:46.021Z,100095.50
2022-10-01T05:58:15.637Z,100102.63
2022-10-01T06:00:43.670Z,100110.13
2022-10-01T06:03:12.939Z,100107.69
2022-10-01T06:05:41.092Z,100106.38
2022-10-01T06:08:09.716Z,100082.59
2022-10-01T06:10:37.764Z,100089.03
2022-10-01T06:13:06.059Z,100095.78
2022-10-01T06:15:37.884Z,100073.41
2022-10-01T06:18:06.487Z,100080.94
2022-10-01T06:20:34.589Z,100084.31
2022-10-01T06:23:02.635Z,100099.09
2022-10-01T06:25:31.074Z,100105.47
2022-10-01T06:27:59.818Z,100097.13
2022-10-01T06:30:28.442Z,100094.28
2022-10-01T06:33:02.818Z,100107.25
2022-10-01T06:35:30.812Z,100107.59
2022-10-01T06:37:58.830Z,100108.47
2022-10-01T06:40:26.974Z,100108.31
2022-10-01T06:42:58.441Z,100106.97
2022-10-01T06:45:26.669Z,100110.59
2022-10-01T06:47:55.616Z,100104.69
2022-10-01T06:50:25.508Z,100104.13
2022-10-01T06:52:53.554Z,100099.81
2022-10-01T06:55:22.126Z,100091.97
2022-10-01T06:57:54.557Z,100090.25
2022-10-01T07:00:22.691Z,100083.91
2022-10-01T07:02:50.889Z,100085.88
2022-10-01T07:05:19.036Z,100084.53
2022-10-01T07:07:49.225Z,100079.66
2022-10-01T07:10:17.814Z,100073.66
2022-10-01T07:12:46.230Z,100076.53
2022-10-01T07:15:14.200Z,100076.72
2022-10-01T07:17:44.583Z,100074.38
2022-10-01T07:20:12.619Z,100073.88
2022-10-01T07:22:40.968Z,100072.03
2022-10-01T07:25:10.885Z,100074.81
2022-10-01T07:27:38.987Z,100051.13
2022-10-01T07:30:08.251Z,100049.50
2022-10-01T07:32:36.408Z,100060.53
2022-10-01T07:35:05.991Z,100062.78
2022-10-01T07:37:33.988Z,100068.00
2022-10-01T07:40:06.681Z,100067.44
2022-10-01T07:42:37.396Z,100068.00
2022-10-01T07:45:06.841Z,100056.13
2022-10-01T07:47:34.855Z,100048.09
2022-10-01T07:50:03.049Z,100046.72
2022-10-01T07:52:31.118Z,100041.16
2022-10-01T07:54:59.117Z,100051.63
2022-10-01T07:57:27.176Z,100048.88
2022-10-01T07:59:56.560Z,100050.50
2022-10-01T08:02:24.548Z,100040.78
2022-10-01T08:05:09.853Z,100035.19
2022-10-01T08:07:37.872Z,100031.31
2022-10-01T08:10:06.797Z,100028.81
2022-10-01T08:12:34.832Z,100022.75
2022-10-01T08:15:04.266Z,99996.19
2022-10-01T08:17:32.255Z,99998.59
2022-10-01T08:20:00.226Z,100003.25
2022-10-01T08:22:28.186Z,100004.84
2022-10-01T08:24:56.139Z,100000.28
2022-10-01T08:27:25.260Z,99993.56
2022-10-01T08:29:53.711Z,100000.19
2022-10-01T08:32:23.436Z,100003.31
2022-10-01T08:34:56.546Z,100008.09
2022-10-01T08:37:28.324Z,100011.84
2022-10-01T08:39:56.348Z,100009.44
2022-10-01T08:42:36.467Z,100003.91
2022-10-01T08:45:06.980Z,100015.34
2022-10-01T08:47:38.255Z,100015.09
2022-10-01T08:50:09.223Z,100008.56
2022-10-01T08:52:38.830Z,100006.31
2022-10-01T08:55:07.781Z,100004.34
2022-10-01T08:57:37.942Z,100001.78
2022-10-01T09:00:07.968Z,99993.34
2022-10-01T09:02:39.479Z,99997.75
2022-10-01T09:05:11.292Z,99988.56
2022-10-01T09:07:53.065Z,99991.91
2022-10-01T09:10:26.730Z,99989.88
2022-10-01T09:13:00.523Z,99984.22
2022-10-01T09:15:31.064Z,99976.50
2022-10-01T09:18:08.773Z,99978.56
2022-10-01T09:20:37.692Z,99972.81
2022-10-01T09:23:17.273Z,99975.69
2022-10-01T09:25:45.970Z,99969.44
2022-10-01T09:28:16.537Z,99951.59
2022-10-01T09:30:46.365Z,99967.00
2022-10-01T09:33:16.961Z,99970.19
2022-10-01T09:35:46.218Z,99971.75
2022-10-01T09:38:17.216Z,99963.22
2022-10-01T09:40:49.406Z,99963.66
2022-10-01T09:43:19.990Z,99970.38
2022-10-01T09:45:48.346Z,99971.38
2022-10-01T09:48:21.264Z,99953.28
2022-10-01T09:50:56.492Z,99956.31
2022-10-01T09:53:27.595Z,99950.13
2022-10-01T09:55:57.343Z,99950.47
2022-10-01T09:58:26.750Z,99946.72
2022-10-01T10:00:54.796Z,99942.75
2022-10-01T10:03:27.477Z,99941.75
2022-10-01T10:05:55.519Z,99939.78
2022-10-01T10:08:27.497Z,99932.56
2022-10-01T10:10:58.525Z,99938.25
2022-10-01T10:13:31.940Z,99933.56
2022-10-01T10:16:00.005Z,99921.72
2022-10-01T10:18:34.020Z,99915.41
2022-10-01T10:21:03.663Z,99917.44
2022-10-01T10:23:31.684Z,99910.47
2022-10-01T10:26:01.213Z,99912.56
2022-10-01T10:28:29.797Z,99925.88
2022-10-01T10:30:57.851Z,99928.50
2022-10-01T10:33:26.418Z,99925.81
2022-10-01T10:36:06.454Z,99919.88
2022-10-01T10:38:35.256Z,99929.38
2022-10-01T10:41:03.932Z,99932.25
2022-10-01T10:43:34.652Z,99922.28
2022-10-01T10:46:03.767Z,99926.72
2022-10-01T10:48:32.959Z,99921.06
2022-10-01T10:51:01.614Z,99929.31
2022-10-01T10:53:33.541Z,99914.00
2022-10-01T10:56:02.448Z,99917.69
2022-10-01T10:58:31.064Z,99914.38
2022-10-01T11:01:00.966Z,99889.47
2022-10-01T11:03:29.667Z,99922.03
2022-10-01T11:05:57.968Z,99909.78
2022-10-01T11:08:27.926Z,99908.00
2022-10-01T11:11:04.269Z,99912.25
2022-10-01T11:13:52.113Z,99906.53
2022-10-01T11:16:30.116Z,99895.81
2022-10-01T11:19:07.888Z,99896.03
2022-10-01T11:21:50.330Z,99874.34
2022-10-01T11:24:37.142Z,99904.22
2022-10-01T11:27:08.888Z,99898.13
2022-10-01T11:29:42.416Z,99907.47
2022-10-01T11:32:19.447Z,99893.47
2022-10-01T11:35:06.528Z,99887.78
2022-10-01T11:37:59.896Z,99880.56
2022-10-01T11:40:30.156Z,99869.72
2022-10-01T11:43:02.015Z,99867.06
2022-10-01T11:45:32.112Z,99866.56
2022-10-01T11:48:01.473Z,99879.25
2022-10-01T11:50:29.896Z,99865.22
2022-10-01T11:52:59.401Z,99868.81
2022-10-01T11:55:46.276Z,99858.78
2022-10-01T11:58:34.862Z,99858.22
2022-10-01T12:01:09.615Z,99852.66
2022-10-01T12:03:44.064Z,99856.94
2022-10-01T12:06:14.430Z,99850.78
2022-10-01T12:08:42.492Z,99847.66
2022-10-01T12:11:16.231Z,99851.59
2022-10-01T12:13:46.939Z,99846.88
2022-10-01T12:16:17.181Z,99848.34
2022-10-01T12:18:51.166Z,99846.75
2022-10-01T12:21:21.837Z,99852.47
2022-10-01T12:23:52.128Z,99854.75
2022-10-01T12:26:25.858Z,99854.09
2022-10-01T12:29:00.346Z,99849.34
2022-10-01T12:31:30.115Z,99847.91
2022-10-01T12:34:04.567Z,99852.16
2022-10-01T12:36:39.149Z,99843.72
2022-10-01T12:39:17.110Z,99848.41
2022-10-01T12:41:59.680Z,99839.03
2022-10-01T12:44:37.303Z,99826.75
2022-10-01T12:47:15.053Z,99841.41
2022-10-01T12:49:45.414Z,99841.59
2022-10-01T12:52:16.540Z,99846.59
2022-10-01T12:54:50.743Z,99849.09
2022-10-01T12:57:37.056Z,99848.28
2022-10-01T13:00:13.695Z,99843.72
2022-10-01T13:03:06.307Z,99824.06
2022-10-01T13:05:37.158Z,99812.53
2022-10-01T13:08:13.715Z,99806.84
2022-10-01T13:10:49.789Z,99797.00
2022-10-01T13:13:18.506Z,99797.47
2022-10-01T13:15:49.574Z,99796.50
2022-10-01T13:18:25.290Z,99792.16
2022-10-01T13:20:57.726Z,99781.66
2022-10-01T13:23:29.655Z,99768.53
2022-10-01T13:26:02.754Z,99789.75
2022-10-01T13:28:33.939Z,99783.22
2022-10-01T13:31:12.410Z,99781.78
2022-10-01T13:33:40.426Z,99766.41
2022-10-01T13:36:09.028Z,99770.00
2022-10-01T13:38:42.625Z,99756.81
2022-10-01T13:41:19.241Z,99751.03
2022-10-01T13:43:57.265Z,99750.41
2022-10-01T13:46:28.466Z,99762.13
2022-10-01T13:48:57.255Z,99765.78
2022-10-01T13:51:35.117Z,99748.13
2022-10-01T13:54:03.130Z,99741.22
2022-10-01T13:56:32.249Z,99752.84
2022-10-01T13:59:00.490Z,99757.13
2022-10-01T14:01:32.076Z,99757.94
2022-10-01T14:04:03.937Z,99746.16
2022-10-01T14:06:33.333Z,99747.97
2022-10-01T14:09:05.043Z,99743.06
2022-10-01T14:11:51.532Z,99707.13
2022-10-01T14:14:39.515Z,99724.56
2022-10-01T14:17:09.447Z,99719.19
2022-10-01T14:19:37.385Z,99728.09
2022-10-01T14:22:19.081Z,99728.69
2022-10-01T14:24:56.697Z,99729.97
2022-10-01T14:27:26.794Z,99732.34
2022-10-01T14:30:02.011Z,99735.34
2022-10-01T14:32:36.166Z,99728.91
2022-10-01T14:35:09.986Z,99714.97
2022-10-01T14:37:38.954Z,99699.56
2022-10-01T14:40:15.747Z,99666.09
2022-10-01T14:42:43.728Z,99622.59
2022-10-01T14:45:19.066Z,99588.91
2022-10-01T14:47:49.884Z,99585.22
2022-10-01T14:50:20.314Z,99607.19
2022-10-01T14:52:51.045Z,99632.75
2022-10-01T14:55:21.328Z,99625.94
2022-10-01T14:57:50.553Z,99617.72
2022-10-01T15:00:19.334Z,99606.50
2022-10-01T15:02:49.530Z,99613.47
2022-10-01T15:05:22.965Z,99614.66
2022-10-01T15:07:50.954Z,99615.84
2022-10-01T15:10:19.320Z,99602.94
2022-10-01T15:12:48.411Z,99599.63
2022-10-01T15:15:18.869Z,99596.91
2022-10-01T15:17:48.199Z,99586.00
2022-10-01T15:20:16.235Z,99572.00
2022-10-01T15:22:44.244Z,99571.91
2022-10-01T15:25:16.671Z,99593.00
2022-10-01T15:27:44.654Z,99594.84
2022-10-01T15:30:15.215Z,99591.94
2022-10-01T15:32:43.139Z,99584.59
2022-10-01T15:35:13.158Z,99578.63
2022-10-01T15:37:41.558Z,99579.84
2022-10-01T15:40:21.569Z,99575.47
2022-10-01T15:43:12.899Z,99556.38
2022-10-01T15:45:40.871Z,99572.91
2022-10-01T15:48:20.946Z,99571.31
2022-10-01T15:50:50.285Z,99574.09
2022-10-01T15:53:19.550Z,99576.94
2022-10-01T15:55:48.349Z,99580.84
2022-10-01T15:58:18.274Z,99584.72
2022-10-01T16:00:57.786Z,99586.13
2022-10-01T16:03:29.230Z,99593.03
2022-10-01T16:05:59.255Z,99582.00
2022-10-01T16:08:34.205Z,99580.94
2022-10-01T16:11:17.886Z,99576.00
2022-10-01T16:13:45.914Z,99585.91
2022-10-01T16:16:22.199Z,99590.88
2022-10-01T16:18:52.539Z,99591.44
2022-10-01T16:21:21.992Z,99587.03
2022-10-01T16:23:50.430Z,99579.88
2022-10-01T16:26:41.106Z,99578.72
2022-10-01T16:29:20.415Z,99577.34
2022-10-01T16:31:48.419Z,99571.31
2022-10-01T16:34:17.752Z,99561.13
2022-10-01T16:36:47.166Z,99562.75
2022-10-01T16:39:15.469Z,99555.00
2022-10-01T16:41:44.137Z,99542.91
2022-10-01T16:44:13.219Z,99532.44
2022-10-01T16:46:41.533Z,99534.34
2022-10-01T16:49:14.171Z,99523.34
2022-10-01T16:51:42.490Z,99513.97
2022-10-01T16:54:23.430Z,99502.69
2022-10-01T16:56:52.374Z,99494.44
2022-10-01T16:59:22.750Z,99486.41
2022-10-01T17:01:51.435Z,99483.34
2022-10-01T17:04:19.768Z,99475.56
2022-10-01T17:06:48.201Z,99465.19
2022-10-01T17:09:16.150Z,99461.59
2022-10-01T17:11:46.441Z,99457.44
2022-10-01T17:14:16.721Z,99443.97
2022-10-01T17:16:45.483Z,99452.44
2022-10-01T17:19:14.749Z,99444.22
2022-10-01T17:21:42.806Z,99439.50
2022-10-01T17:24:11.550Z,99429.38
2022-10-01T17:26:40.596Z,99423.88
2022-10-01T17:29:10.283Z,99416.75
2022-10-01T17:31:38.488Z,99421.13
2022-10-01T17:34:06.520Z,99422.75
2022-10-01T17:36:35.546Z,99418.66
2022-10-01T17:39:03.700Z,99413.44
2022-10-01T17:41:31.624Z,99413.19
2022-10-01T17:43:59.581Z,99396.19
2022-10-01T17:46:30.006Z,99394.03
2022-10-01T17:48:57.972Z,99392.66
2022-10-01T17:51:26.165Z,99385.84
2022-10-01T17:53:54.975Z,99381.19
2022-10-01T17:56:22.939Z,99381.19
2022-10-01T17:58:50.915Z,99374.34
2022-10-01T18:01:21.240Z,99364.19
2022-10-01T18:03:53.255Z,99361.44
2022-10-01T18:06:21.244Z,99345.06
2022-10-01T18:08:56.916Z,99350.59
2022-10-01T18:11:25.168Z,99344.03
2022-10-01T18:13:53.192Z,99338.56
2022-10-01T18:16:21.180Z,99332.28
2022-10-01T18:21:43.429Z,99318.31
2022-10-01T18:24:11.483Z,99315.06
2022-10-01T18:26:39.671Z,99313.44
2022-10-01T18:29:07.788Z,99316.97
2022-10-01T18:31:36.541Z,99315.31
2022-10-01T18:34:12.532Z,99321.59
2022-10-01T18:36:43.241Z,99293.63
2022-10-01T18:39:15.262Z,99296.38
2022-10-01T18:41:43.283Z,99295.84
2022-10-01T18:44:11.388Z,99303.50
2022-10-01T18:47:04.414Z,99294.19
2022-10-01T18:50:02.633Z,99279.91
2022-10-01T18:52:36.837Z,99296.09
2022-10-01T18:55:21.153Z,99277.16
2022-10-01T18:57:58.352Z,99277.16
2022-10-01T19:00:27.079Z,99283.16
2022-10-01T19:03:17.174Z,99288.59
2022-10-01T19:06:05.737Z,99292.88
2022-10-01T19:08:50.469Z,99291.72
2022-10-01T19:11:21.040Z,99290.00
2022-10-01T19:13:51.414Z,99277.06
2022-10-01T19:16:27.511Z,99284.47
2022-10-01T19:19:03.182Z,99278.94
2022-10-01T19:21:34.424Z,99271.22
2022-10-01T19:24:23.196Z,99255.34
2022-10-01T19:26:57.305Z,99236.16
2022-10-01T19:29:34.022Z,99223.25
2022-10-01T19:32:03.003Z,99224.41
2022-10-01T19:34:32.251Z,99210.97
2022-10-01T19:37:03.558Z,99189.63
2022-10-01T19:39:33.526Z,99191.22
2022-10-01T19:42:03.055Z,99171.53
2022-10-01T19:44:36.589Z,99168.75
2022-10-01T19:47:17.857Z,99164.09
2022-10-01T19:49:45.933Z,99157.28
2022-10-01T19:52:18.296Z,99133.75
2022-10-01T19:54:49.499Z,99130.50
2022-10-01T19:57:21.946Z,99133.81
2022-10-01T19:59:50.191Z,99135.72
2022-10-01T20:02:27.911Z,99115.75
2022-10-01T20:04:57.747Z,99109.50
2022-10-01T20:07:28.534Z,99139.94
2022-10-01T20:10:01.582Z,99129.00
2022-10-01T20:12:36.191Z,99122.44
2022-10-01T20:15:12.612Z,99098.06
2022-10-01T20:17:47.940Z,99111.56
2022-10-01T20:20:18.658Z,99120.41
2022-10-01T20:22:53.957Z,99116.03
2022-10-01T20:25:24.551Z,99113.03
2022-10-01T20:27:55.545Z,99110.25
2022-10-01T20:30:23.905Z,99111.31
2022-10-01T20:32:56.763Z,99097.22
2022-10-01T20:35:28.901Z,99097.59
2022-10-01T20:38:06.927Z,99081.38
2022-10-01T20:40:40.087Z,99102.34
2022-10-01T20:43:11.282Z,99095.69
2022-10-01T20:45:39.299Z,99101.78
2022-10-01T20:48:11.512Z,99106.69
2022-10-01T20:50:43.785Z,99108.06
2022-10-01T20:53:18.216Z,99112.59
2022-10-01T20:55:48.865Z,99095.94
2022-10-01T20:58:18.403Z,99106.94
2022-10-01T21:00:46.573Z,99109.19
2022-10-01T21:03:24.101Z,99080.19
2022-10-01T21:05:52.881Z,99101.59
2022-10-01T21:08:30.351Z,99100.63
2022-10-01T21:11:00.593Z,99097.94
2022-10-01T21:13:33.734Z,99086.41
2022-10-01T21:16:09.082Z,99094.66
2022-10-01T21:18:40.977Z,99094.09
2022-10-01T21:21:14.178Z,99089.19
2022-10-01T21:23:51.818Z,99112.19
2022-10-01T21:26:24.706Z,99129.44
2022-10-01T21:29:10.444Z,99186.72
2022-10-01T21:31:43.802Z,99283.16
2022-10-01T21:34:14.547Z,99273.28
2022-10-01T21:36:57.549Z,99295.19
2022-10-01T21:39:31.735Z,99344.19
2022-10-01T21:42:01.820Z,99380.06
2022-10-01T21:45:02.159Z,99378.53
2022-10-01T21:47:37.618Z,99382.78
2022-10-01T21:50:10.200Z,99372.09
2022-10-01T21:52:40.912Z,99380.38
2022-10-01T21:55:26.176Z,99393.72
2022-10-01T21:58:03.684Z,99400.94
2022-10-01T22:00:32.834Z,99383.28
2022-10-01T22:03:17.488Z,99355.97
2022-10-01T22:05:50.409Z,99371.53
2022-10-01T22:08:27.361Z,99378.34
2022-10-01T22:10:57.963Z,99381.13
2022-10-01T22:13:28.619Z,99358.91
2022-10-01T22:15:57.823Z,99361.22
2022-10-01T22:18:33.398Z,99350.84
2022-10-01T22:21:01.858Z,99333.31
2022-10-01T22:23:29.818Z,99325.72
2022-10-01T22:26:00.084Z,99314.00
2022-10-01T22:28:29.738Z,99317.97
2022-10-01T22:30:57.761Z,99352.28
2022-10-01T22:33:29.142Z,99361.03
2022-10-01T22:35:59.203Z,99370.78
2022-10-01T22:38:28.435Z,99383.66
2022-10-01T22:40:59.799Z,99384.00
2022-10-01T22:43:27.744Z,99377.56
2022-10-01T22:46:09.437Z,99368.44
2022-10-01T22:48:45.263Z,99352.66
2022-10-01T22:51:20.775Z,99350.50
2022-10-01T22:53:58.786Z,99363.06
2022-10-01T22:56:31.007Z,99354.56
2022-10-01T22:59:04.800Z,99368.19
2022-10-01T23:01:37.646Z,99370.66
2022-10-01T23:04:11.520Z,99350.84
2022-10-01T23:06:42.321Z,99382.81
2022-10-01T23:09:13.363Z,99377.13
2022-10-01T23:11:47.535Z,99389.50
2022-10-01T23:14:20.613Z,99412.97
2022-10-01T23:16:51.999Z,99407.53
2022-10-01T23:19:29.325Z,99408.94
2022-10-01T23:22:00.295Z,99412.84
2022-10-01T23:24:36.173Z,99428.38
2022-10-01T23:27:08.752Z,99441.06
2022-10-01T23:30:11.677Z,99446.66
2022-10-01T23:32:48.131Z,99455.09
2022-10-01T23:35:18.535Z,99426.41
2022-10-01T23:38:02.306Z,99422.03
2022-10-01T23:40:32.605Z,99419.22
2022-10-01T23:43:03.726Z,99427.16
2022-10-01T23:45:33.790Z,99407.84
2022-10-01T23:48:04.768Z,99413.28
2022-10-01T23:50:34.460Z,99422.09
2022-10-01T23:53:08.588Z,99416.41
2022-10-01T23:56:03.548Z,99410.25
2022-10-01T23:58:36.438Z,99422.19
